createdAt,value
2019-04-23T00:00:13.530Z,2.89
2019-04-23T00:01:23.596Z,4.13
2019-04-23T00:02:19.732Z,2.58
2019-04-23T00:04:18.326Z,2.65
2019-04-23T00:05:21.409Z,3.92
2019-04-23T00:07:27.593Z,2.73
2019-04-23T00:10:19.360Z,3.19
2019-04-23T00:11:20.083Z,2.39
2019-04-23T00:12:30.095Z,3.11
2019-04-23T00:13:26.682Z,3.70
2019-04-23T00:14:21.072Z,4.11
2019-04-23T00:15:21.781Z,4.06
2019-04-23T00:16:23.990Z,3.70
2019-04-23T00:17:26.102Z,4.25
2019-04-23T00:18:24.844Z,3.36
2019-04-23T00:19:18.921Z,4.13
2019-04-23T00:20:18.878Z,2.90
2019-04-23T00:21:24.301Z,3.22
2019-04-23T00:23:16.382Z,2.20
2019-04-23T00:24:28.199Z,3.12
2019-04-23T00:26:24.078Z,4.55
2019-04-23T00:27:29.273Z,3.18
2019-04-23T00:28:20.454Z,2.71
2019-04-23T00:29:18.945Z,3.08
2019-04-23T00:30:20.258Z,2.46
2019-04-23T00:31:18.510Z,3.10
2019-04-23T00:32:25.162Z,2.19
2019-04-23T00:33:21.829Z,3.25
2019-04-23T00:34:17.801Z,2.39
2019-04-23T00:35:18.075Z,3.69
2019-04-23T00:36:28.782Z,3.77
2019-04-23T00:37:25.458Z,3.52
2019-04-23T00:39:18.915Z,2.70
2019-04-23T00:40:20.410Z,2.36
2019-04-23T00:41:16.209Z,2.82
2019-04-23T00:42:23.527Z,3.91
2019-04-23T00:43:21.841Z,2.36
2019-04-23T00:44:29.016Z,2.44
2019-04-23T00:45:18.153Z,3.04
2019-04-23T00:46:25.185Z,2.88
2019-04-23T00:47:20.934Z,2.65
2019-04-23T00:48:28.248Z,2.31
2019-04-23T00:50:22.885Z,2.98
2019-04-23T00:51:18.138Z,1.87
2019-04-23T00:52:24.058Z,1.54
2019-04-23T00:55:15.897Z,2.69
2019-04-23T00:56:32.140Z,2.58
2019-04-23T00:57:24.428Z,1.90
2019-04-23T00:58:21.192Z,2.07
2019-04-23T00:59:22.259Z,2.85
2019-04-23T01:00:26.388Z,2.61
2019-04-23T01:01:18.039Z,3.54
2019-04-23T01:02:25.027Z,2.16
2019-04-23T01:03:17.425Z,2.65
2019-04-23T01:04:20.477Z,2.88
2019-04-23T01:05:18.330Z,2.29
2019-04-23T01:06:19.344Z,2.80
2019-04-23T01:07:18.870Z,2.57
2019-04-23T01:09:14.067Z,3.38
2019-04-23T01:10:24.600Z,2.54
2019-04-23T01:11:16.356Z,2.56
2019-04-23T01:12:22.829Z,3.78
2019-04-23T01:13:25.175Z,2.56
2019-04-23T01:15:25.456Z,2.07
2019-04-23T01:16:18.105Z,2.47
2019-04-23T01:17:30.241Z,2.23
2019-04-23T01:18:32.250Z,3.06
2019-04-23T01:19:24.543Z,2.12
2019-04-23T01:20:58.857Z,2.33
2019-04-23T01:22:00.031Z,2.17
2019-04-23T01:22:59.038Z,2.98
2019-04-23T01:24:04.379Z,2.42
2019-04-23T01:25:11.227Z,2.59
2019-04-23T01:26:15.465Z,2.91
2019-04-23T01:28:17.461Z,2.80
2019-04-23T01:29:12.621Z,2.98
2019-04-23T01:30:19.707Z,3.42
2019-04-23T01:31:16.558Z,2.65
2019-04-23T01:34:29.172Z,3.77
2019-04-23T01:36:21.476Z,3.91
2019-04-23T01:37:26.371Z,4.16
2019-04-23T01:38:32.508Z,2.86
2019-04-23T01:40:27.274Z,2.87
2019-04-23T01:42:37.354Z,2.09
2019-04-23T01:43:28.862Z,3.63
2019-04-23T01:44:33.754Z,3.40
2019-04-23T01:45:26.066Z,2.29
2019-04-23T01:46:23.485Z,2.29
2019-04-23T01:47:24.444Z,2.95
2019-04-23T01:48:13.268Z,2.59
2019-04-23T01:50:14.272Z,2.73
2019-04-23T01:51:31.124Z,1.56
2019-04-23T01:52:16.147Z,2.00
2019-04-23T01:54:25.570Z,2.29
2019-04-23T01:56:24.291Z,1.74
2019-04-23T01:59:24.628Z,1.88
2019-04-23T02:00:17.351Z,2.38
2019-04-23T02:01:25.718Z,3.56
2019-04-23T02:02:31.637Z,2.45
2019-04-23T02:03:15.213Z,2.33
2019-04-23T02:04:18.818Z,2.64
2019-04-23T02:06:16.639Z,2.17
2019-04-23T02:07:29.950Z,1.78
2019-04-23T02:08:20.851Z,3.31
2019-04-23T02:09:25.522Z,2.18
2019-04-23T02:10:38.040Z,2.05
2019-04-23T02:11:11.521Z,1.97
2019-04-23T02:12:28.272Z,2.73
2019-04-23T02:14:18.251Z,2.20
2019-04-23T02:15:23.117Z,1.81
2019-04-23T02:16:24.588Z,1.77
2019-04-23T02:17:15.738Z,1.61
2019-04-23T02:19:23.572Z,2.40
2019-04-23T02:21:22.568Z,0.75
2019-04-23T02:22:31.544Z,1.53
2019-04-23T02:23:26.240Z,1.06
2019-04-23T02:25:27.993Z,2.71
2019-04-23T02:26:17.061Z,1.69
2019-04-23T02:27:29.603Z,3.18
2019-04-23T02:28:25.465Z,1.45
2019-04-23T02:29:38.122Z,2.96
2019-04-23T02:31:44.819Z,1.47
2019-04-23T02:32:34.054Z,4.21
2019-04-23T02:33:36.279Z,1.48
2019-04-23T02:35:42.376Z,2.40
2019-04-23T02:36:29.484Z,2.17
2019-04-23T02:39:22.631Z,1.88
2019-04-23T02:40:38.042Z,2.60
2019-04-23T02:41:25.134Z,2.43
2019-04-23T02:42:49.607Z,0.86
2019-04-23T02:44:36.926Z,1.92
2019-04-23T02:46:09.815Z,1.83
2019-04-23T02:47:32.547Z,4.09
2019-04-23T02:48:30.727Z,2.45
2019-04-23T02:49:27.166Z,2.31
2019-04-23T02:51:22.162Z,2.84
2019-04-23T02:52:34.240Z,3.06
2019-04-23T02:53:44.298Z,2.62
2019-04-23T02:54:29.130Z,2.88
2019-04-23T02:55:39.284Z,3.48
2019-04-23T02:56:37.629Z,2.16
2019-04-23T02:59:39.948Z,3.01
2019-04-23T03:01:21.717Z,3.02
2019-04-23T03:03:38.615Z,1.87
2019-04-23T03:05:19.851Z,3.08
2019-04-23T03:06:38.116Z,1.93
2019-04-23T03:07:39.011Z,2.12
2019-04-23T03:09:36.397Z,2.54
2019-04-23T03:10:31.327Z,3.03
2019-04-23T03:15:39.503Z,3.12
2019-04-23T03:16:38.163Z,4.24
2019-04-23T03:17:27.124Z,2.38
2019-04-23T03:19:15.274Z,3.18
2019-04-23T03:20:35.037Z,3.16
2019-04-23T03:21:35.652Z,2.86
2019-04-23T03:22:14.569Z,2.80
2019-04-23T03:23:29.151Z,3.50
2019-04-23T03:24:38.883Z,2.15
2019-04-23T03:28:37.699Z,4.16
2019-04-23T03:29:26.452Z,4.24
2019-04-23T03:30:29.655Z,2.32
2019-04-23T03:32:45.288Z,3.55
2019-04-23T03:34:02.631Z,2.59
2019-04-23T03:36:10.868Z,2.82
2019-04-23T03:37:04.105Z,2.69
2019-04-23T03:39:44.223Z,2.68
2019-04-23T03:40:13.775Z,2.87
2019-04-23T03:41:21.654Z,2.14
2019-04-23T03:42:38.719Z,2.65
2019-04-23T03:43:35.336Z,2.81
2019-04-23T03:44:27.093Z,2.35
2019-04-23T03:46:29.316Z,2.38
2019-04-23T03:47:33.079Z,3.11
2019-04-23T03:48:26.206Z,2.84
2019-04-23T03:49:32.586Z,1.87
2019-04-23T03:51:38.281Z,2.43
2019-04-23T03:52:34.880Z,3.91
2019-04-23T03:55:28.059Z,2.51
2019-04-23T03:56:29.457Z,1.77
2019-04-23T03:57:20.291Z,2.70
2019-04-23T03:58:39.098Z,2.66
2019-04-23T03:59:39.361Z,2.31
2019-04-23T04:00:24.889Z,2.33
2019-04-23T04:01:29.875Z,2.75
2019-04-23T04:02:34.026Z,3.80
2019-04-23T04:03:53.004Z,3.35
2019-04-23T04:08:25.904Z,4.95
2019-04-23T04:09:37.006Z,2.84
2019-04-23T04:10:42.191Z,3.06
2019-04-23T04:11:25.619Z,3.26
2019-04-23T04:12:21.750Z,4.04
2019-04-23T04:14:38.225Z,2.29
2019-04-23T04:15:35.630Z,2.21
2019-04-23T04:16:17.812Z,3.30
2019-04-23T04:18:38.823Z,2.52
2019-04-23T04:20:24.813Z,3.78
2019-04-23T04:21:35.839Z,3.33
2019-04-23T04:22:43.888Z,1.82
2019-04-23T04:25:33.593Z,3.40
2019-04-23T04:26:21.084Z,2.26
2019-04-23T04:27:43.332Z,1.32
2019-04-23T04:28:23.606Z,2.24
2019-04-23T04:29:40.907Z,1.22
2019-04-23T04:32:33.717Z,1.14
2019-04-23T04:33:29.810Z,2.19
2019-04-23T04:34:56.079Z,2.50
2019-04-23T04:35:27.297Z,2.25
2019-04-23T04:36:32.574Z,3.83
2019-04-23T04:37:46.279Z,1.37
2019-04-23T04:39:34.053Z,2.27
2019-04-23T04:40:23.548Z,2.45
2019-04-23T04:41:26.056Z,1.55
2019-04-23T04:45:42.237Z,1.59
2019-04-23T04:47:36.809Z,2.20
2019-04-23T04:48:35.458Z,1.29
2019-04-23T04:49:21.451Z,2.07
2019-04-23T04:50:22.793Z,1.68
2019-04-23T04:51:46.245Z,1.85
2019-04-23T04:53:44.932Z,1.71
2019-04-23T04:55:21.184Z,2.98
2019-04-23T04:56:36.084Z,1.97
2019-04-23T04:57:35.963Z,2.28
2019-04-23T04:58:31.736Z,2.09
2019-04-23T04:59:22.760Z,2.00
2019-04-23T05:01:13.776Z,3.39
2019-04-23T05:02:41.724Z,3.21
2019-04-23T05:03:26.930Z,2.35
2019-04-23T05:04:39.924Z,1.84
2019-04-23T05:06:02.741Z,2.92
2019-04-23T05:06:37.888Z,1.87
2019-04-23T05:08:23.871Z,2.70
2019-04-23T05:10:28.832Z,2.74
2019-04-23T05:12:27.567Z,1.99
2019-04-23T05:13:41.270Z,2.07
2019-04-23T05:15:16.839Z,2.78
2019-04-23T05:16:27.564Z,2.08
2019-04-23T05:17:28.085Z,4.24
2019-04-23T05:18:31.744Z,1.78
2019-04-23T05:19:40.760Z,2.13
2019-04-23T05:20:26.105Z,2.43
2019-04-23T05:21:26.884Z,2.45
2019-04-23T05:23:25.460Z,3.20
2019-04-23T05:24:28.712Z,1.98
2019-04-23T05:25:24.370Z,2.29
2019-04-23T05:26:26.483Z,1.98
2019-04-23T05:27:28.942Z,2.23
2019-04-23T05:28:28.311Z,3.79
2019-04-23T05:29:27.625Z,2.61
2019-04-23T05:31:23.135Z,2.86
2019-04-23T05:32:28.741Z,3.28
2019-04-23T05:33:17.127Z,2.70
2019-04-23T05:34:22.626Z,2.25
2019-04-23T05:36:30.846Z,3.72
2019-04-23T05:37:33.408Z,4.13
2019-04-23T05:38:38.013Z,3.75
2019-04-23T05:39:31.325Z,2.96
2019-04-23T05:40:27.708Z,3.44
2019-04-23T05:41:17.232Z,2.85
2019-04-23T05:43:19.279Z,4.39
2019-04-23T05:45:16.656Z,4.43
2019-04-23T05:48:23.525Z,3.72
2019-04-23T05:49:26.176Z,4.28
2019-04-23T05:50:35.769Z,5.06
2019-04-23T05:51:31.183Z,3.99
2019-04-23T05:53:27.249Z,4.39
2019-04-23T05:55:13.613Z,4.82
2019-04-23T05:56:25.647Z,5.37
2019-04-23T05:57:20.278Z,4.84
2019-04-23T05:58:30.063Z,3.50
2019-04-23T05:59:28.125Z,5.50
2019-04-23T06:02:26.772Z,3.96
2019-04-23T06:04:19.542Z,3.79
2019-04-23T06:05:19.415Z,4.47
2019-04-23T06:06:21.714Z,3.73
2019-04-23T06:07:22.207Z,4.54
2019-04-23T06:10:19.733Z,2.55
2019-04-23T06:11:26.014Z,2.59
2019-04-23T06:12:13.790Z,2.99
2019-04-23T06:13:33.803Z,3.11
2019-04-23T06:14:20.346Z,3.48
2019-04-23T06:16:31.455Z,4.42
2019-04-23T06:17:21.684Z,2.67
2019-04-23T06:19:20.809Z,4.40
2019-04-23T06:20:31.497Z,4.56
2019-04-23T06:21:30.917Z,3.98
2019-04-23T06:22:31.501Z,4.51
2019-04-23T06:23:33.085Z,3.69
2019-04-23T06:24:29.008Z,4.62
2019-04-23T06:25:47.811Z,3.27
2019-04-23T06:27:26.031Z,3.31
2019-04-23T06:28:27.707Z,3.70
2019-04-23T06:30:33.206Z,4.21
2019-04-23T06:31:30.854Z,5.05
2019-04-23T06:32:26.067Z,3.91
2019-04-23T06:33:25.613Z,3.40
2019-04-23T06:35:22.549Z,3.16
2019-04-23T06:39:15.852Z,4.30
2019-04-23T06:44:25.587Z,4.67
2019-04-23T06:45:26.041Z,3.31
2019-04-23T06:46:30.703Z,3.15
2019-04-23T06:47:17.049Z,3.23
2019-04-23T06:48:32.010Z,3.63
2019-04-23T06:50:27.174Z,3.73
2019-04-23T06:51:27.231Z,3.28
2019-04-23T06:52:19.216Z,4.05
2019-04-23T06:54:25.584Z,3.94
2019-04-23T06:56:26.825Z,3.45
2019-04-23T06:57:22.333Z,2.73
2019-04-23T06:58:20.801Z,5.20
2019-04-23T06:59:24.475Z,4.38
2019-04-23T07:00:29.350Z,3.65
2019-04-23T07:01:09.697Z,3.99
2019-04-23T07:02:30.619Z,4.71
2019-04-23T07:04:29.051Z,3.00
2019-04-23T07:05:23.850Z,2.80
2019-04-23T07:07:46.567Z,4.25
2019-04-23T07:08:34.198Z,3.31
2019-04-23T07:09:10.787Z,4.64
2019-04-23T07:10:25.247Z,2.85
2019-04-23T07:11:28.789Z,4.01
2019-04-23T07:12:22.004Z,5.16
2019-04-23T07:13:35.524Z,4.09
2019-04-23T07:14:34.071Z,3.08
2019-04-23T07:16:21.585Z,3.54
2019-04-23T07:17:13.859Z,5.58
2019-04-23T07:18:27.844Z,4.37
2019-04-23T07:19:18.403Z,3.82
2019-04-23T07:20:15.216Z,3.94
2019-04-23T07:21:22.132Z,3.98
2019-04-23T07:22:21.600Z,4.95
2019-04-23T07:23:34.292Z,5.42
2019-04-23T07:24:21.413Z,3.16
2019-04-23T07:25:22.361Z,2.98
2019-04-23T07:29:25.944Z,5.91
2019-04-23T07:30:13.109Z,4.26
2019-04-23T07:31:29.898Z,4.74
2019-04-23T07:32:29.009Z,6.80
2019-04-23T07:34:20.325Z,5.69
2019-04-23T07:35:13.394Z,4.75
2019-04-23T07:38:32.758Z,4.86
2019-04-23T07:39:23.547Z,8.71
2019-04-23T07:41:30.289Z,5.84
2019-04-23T07:42:24.750Z,4.02
2019-04-23T07:43:22.479Z,3.41
2019-04-23T07:44:21.036Z,4.25
2019-04-23T07:45:17.543Z,4.00
2019-04-23T07:46:33.193Z,3.94
2019-04-23T07:48:16.455Z,3.23
2019-04-23T07:49:25.011Z,5.80
2019-04-23T07:50:38.174Z,4.30
2019-04-23T07:51:27.708Z,4.54
2019-04-23T07:52:15.026Z,3.55
2019-04-23T07:53:27.306Z,2.72
2019-04-23T07:55:36.255Z,3.44
2019-04-23T07:56:13.140Z,2.37
2019-04-23T07:57:26.802Z,5.79
2019-04-23T07:58:27.261Z,4.72
2019-04-23T07:59:25.343Z,4.58
2019-04-23T08:00:36.642Z,4.66
2019-04-23T08:01:25.258Z,5.87
2019-04-23T08:02:26.910Z,4.49
2019-04-23T08:03:30.711Z,3.57
2019-04-23T08:04:31.737Z,4.08
2019-04-23T08:09:20.476Z,9.09
2019-04-23T08:10:18.580Z,5.44
2019-04-23T08:11:30.496Z,4.26
2019-04-23T08:13:32.323Z,6.86
2019-04-23T08:14:13.665Z,7.38
2019-04-23T08:15:28.107Z,2.96
2019-04-23T08:17:24.369Z,5.51
2019-04-23T08:18:29.750Z,3.85
2019-04-23T08:19:34.950Z,3.95
2019-04-23T08:20:16.352Z,5.97
2019-04-23T08:21:29.573Z,4.72
2019-04-23T08:22:30.365Z,4.52
2019-04-23T08:23:16.481Z,6.70
2019-04-23T08:25:31.934Z,4.65
2019-04-23T08:27:21.504Z,5.72
2019-04-23T08:28:37.186Z,6.70
2019-04-23T08:29:22.125Z,4.18
2019-04-23T08:30:24.047Z,5.56
2019-04-23T08:33:23.376Z,5.46
2019-04-23T08:34:25.682Z,8.51
2019-04-23T08:35:23.209Z,3.87
2019-04-23T08:36:27.288Z,4.44
2019-04-23T08:37:15.425Z,5.37
2019-04-23T08:38:25.960Z,6.13
2019-04-23T08:39:18.165Z,4.96
2019-04-23T08:40:29.697Z,4.19
2019-04-23T08:41:22.921Z,4.60
2019-04-23T08:44:28.832Z,4.41
2019-04-23T08:45:22.674Z,3.58
2019-04-23T08:46:33.038Z,5.43
2019-04-23T08:49:29.573Z,4.87
2019-04-23T08:50:29.258Z,5.62
2019-04-23T08:51:38.939Z,4.56
2019-04-23T08:52:27.176Z,4.64
2019-04-23T08:54:25.298Z,5.62
2019-04-23T08:55:34.896Z,6.60
2019-04-23T08:56:15.117Z,9.19
2019-04-23T08:58:23.620Z,5.89
2019-04-23T08:59:33.142Z,7.87
2019-04-23T09:00:31.432Z,4.19
2019-04-23T09:01:27.628Z,7.77
2019-04-23T09:02:31.254Z,6.28
2019-04-23T09:03:25.813Z,7.02
2019-04-23T09:05:32.429Z,8.23
2019-04-23T09:06:21.821Z,5.20
2019-04-23T09:09:27.139Z,5.28
2019-04-23T09:10:26.380Z,6.28
2019-04-23T09:11:32.407Z,6.03
2019-04-23T09:14:20.549Z,4.43
2019-04-23T09:15:33.020Z,3.72
2019-04-23T09:16:28.440Z,6.97
2019-04-23T09:17:30.486Z,4.01
2019-04-23T09:21:30.854Z,7.75
2019-04-23T09:22:30.972Z,6.67
2019-04-23T09:23:21.130Z,4.65
2019-04-23T09:24:27.666Z,7.34
2019-04-23T09:26:24.634Z,4.48
2019-04-23T09:27:27.529Z,6.03
2019-04-23T09:28:38.857Z,6.34
2019-04-23T09:29:32.106Z,6.82
2019-04-23T09:31:23.153Z,7.92
2019-04-23T09:32:29.859Z,6.91
2019-04-23T09:33:36.362Z,5.49
2019-04-23T09:34:31.514Z,5.83
2019-04-23T09:35:27.570Z,5.17
2019-04-23T09:36:30.810Z,7.09
2019-04-23T09:37:26.768Z,4.69
2019-04-23T09:40:31.505Z,6.01
2019-04-23T09:41:16.677Z,5.66
2019-04-23T09:42:31.873Z,6.94
2019-04-23T09:44:48.560Z,8.34
2019-04-23T09:45:27.989Z,6.22
2019-04-23T09:46:25.712Z,6.38
2019-04-23T09:48:11.979Z,7.83
2019-04-23T09:49:31.092Z,6.66
2019-04-23T09:50:33.196Z,6.82
2019-04-23T09:53:27.751Z,8.29
2019-04-23T09:54:23.615Z,6.40
2019-04-23T09:55:22.202Z,6.44
2019-04-23T09:56:32.848Z,5.78
2019-04-23T09:57:26.500Z,4.38
2019-04-23T09:59:31.232Z,6.90
2019-04-23T10:00:30.872Z,4.78
2019-04-23T10:01:25.892Z,5.92
2019-04-23T10:02:17.519Z,8.16
2019-04-23T10:03:04.878Z,5.79
2019-04-23T10:04:08.744Z,4.94
2019-04-23T10:05:07.284Z,5.69
2019-04-23T10:06:07.734Z,5.82
2019-04-23T10:07:15.225Z,5.21
2019-04-23T10:08:07.927Z,5.16
2019-04-23T10:09:02.657Z,6.74
2019-04-23T10:09:59.697Z,8.68
2019-04-23T10:10:59.779Z,4.22
2019-04-23T10:12:00.866Z,4.75
2019-04-23T10:13:00.179Z,5.55
2019-04-23T10:14:00.588Z,7.70
2019-04-23T10:15:09.343Z,5.52
2019-04-23T10:16:00.097Z,4.73
2019-04-23T10:16:59.988Z,3.86
2019-04-23T10:18:00.275Z,4.06
2019-04-23T10:19:03.814Z,6.45
2019-04-23T10:20:00.682Z,5.94
2019-04-23T10:20:59.337Z,6.49
2019-04-23T10:21:59.703Z,5.39
2019-04-23T10:23:00.182Z,10.58
2019-04-23T10:23:59.405Z,8.27
2019-04-23T10:24:59.526Z,8.91
2019-04-23T10:25:59.374Z,4.76
2019-04-23T10:27:00.089Z,5.38
2019-04-23T10:28:03.198Z,6.70
2019-04-23T10:29:00.104Z,5.09
2019-04-23T10:29:59.728Z,8.49
2019-04-23T10:31:00.668Z,8.01
2019-04-23T10:31:59.788Z,7.79
2019-04-23T10:32:59.545Z,6.86
2019-04-23T10:34:00.098Z,6.33
2019-04-23T10:35:06.712Z,5.36
2019-04-23T10:36:03.244Z,5.63
2019-04-23T10:36:59.679Z,5.67
2019-04-23T10:38:04.525Z,5.29
2019-04-23T10:39:06.129Z,3.95
2019-04-23T10:40:03.558Z,4.87
2019-04-23T10:41:00.368Z,5.53
2019-04-23T10:42:02.851Z,4.69
2019-04-23T10:43:01.258Z,5.57
2019-04-23T10:44:00.769Z,5.24
2019-04-23T10:45:14.983Z,4.64
2019-04-23T10:46:16.875Z,5.12
2019-04-23T10:47:26.690Z,4.39
2019-04-23T10:49:40.503Z,8.89
2019-04-23T10:50:35.043Z,8.48
2019-04-23T10:51:33.984Z,5.38
2019-04-23T10:52:26.430Z,6.02
2019-04-23T10:53:32.910Z,6.44
2019-04-23T10:54:37.697Z,5.90
2019-04-23T10:57:19.947Z,7.16
2019-04-23T10:58:15.768Z,6.12
2019-04-23T10:59:28.780Z,7.92
2019-04-23T11:00:30.712Z,7.43
2019-04-23T11:01:27.919Z,6.01
2019-04-23T11:03:42.233Z,6.12
2019-04-23T11:04:44.731Z,7.13
2019-04-23T11:05:35.470Z,8.20
2019-04-23T11:06:32.517Z,3.92
2019-04-23T11:07:30.864Z,9.69
2019-04-23T11:08:25.624Z,5.60
2019-04-23T11:09:42.482Z,4.90
2019-04-23T11:10:22.007Z,4.50
2019-04-23T11:11:32.622Z,4.29
2019-04-23T11:12:37.123Z,4.76
2019-04-23T11:13:31.847Z,4.00
2019-04-23T11:15:44.161Z,8.81
2019-04-23T11:17:35.473Z,8.90
2019-04-23T11:18:38.327Z,9.08
2019-04-23T11:19:32.016Z,6.54
2019-04-23T11:20:25.425Z,8.93
2019-04-23T11:21:24.001Z,9.31
2019-04-23T11:22:42.598Z,8.49
2019-04-23T11:23:29.062Z,7.41
2019-04-23T11:24:38.057Z,7.71
2019-04-23T11:25:31.522Z,7.35
2019-04-23T11:26:24.397Z,5.95
2019-04-23T11:28:27.472Z,4.83
2019-04-23T11:29:34.037Z,5.87
2019-04-23T11:31:25.891Z,6.42
2019-04-23T11:34:50.356Z,4.30
2019-04-23T11:36:49.165Z,6.02
2019-04-23T11:37:29.843Z,6.10
2019-04-23T11:37:58.721Z,6.04
2019-04-23T11:38:50.926Z,4.89
2019-04-23T11:39:32.646Z,3.66
2019-04-23T11:40:26.148Z,4.41
2019-04-23T11:42:35.714Z,5.71
2019-04-23T11:43:22.716Z,5.30
2019-04-23T11:44:36.497Z,5.72
2019-04-23T11:46:32.287Z,6.77
2019-04-23T11:49:44.970Z,4.76
2019-04-23T11:51:41.828Z,5.34
2019-04-23T11:52:36.568Z,4.28
2019-04-23T11:53:35.977Z,5.73
2019-04-23T11:55:41.237Z,5.69
2019-04-23T11:58:26.939Z,5.81
2019-04-23T11:59:36.113Z,8.81
2019-04-23T12:00:38.566Z,8.34
2019-04-23T12:01:42.885Z,4.30
2019-04-23T12:02:35.439Z,6.95
2019-04-23T12:03:26.564Z,4.11
2019-04-23T12:06:24.362Z,4.39
2019-04-23T12:08:36.503Z,6.64
2019-04-23T12:10:42.628Z,6.23
2019-04-23T12:12:25.134Z,5.61
2019-04-23T12:12:28.515Z,5.03
2019-04-23T12:15:32.733Z,7.02
2019-04-23T12:16:27.960Z,6.01
2019-04-23T12:18:32.015Z,6.55
2019-04-23T12:19:39.298Z,4.97
2019-04-23T12:22:29.530Z,6.11
2019-04-23T12:23:33.319Z,7.52
2019-04-23T12:25:32.741Z,6.09
2019-04-23T12:27:30.675Z,4.32
2019-04-23T12:28:30.578Z,4.50
2019-04-23T12:29:33.611Z,5.89
2019-04-23T12:31:31.472Z,3.77
2019-04-23T12:33:20.344Z,4.75
2019-04-23T12:34:35.725Z,5.35
2019-04-23T12:35:19.308Z,3.91
2019-04-23T12:36:26.201Z,3.55
2019-04-23T12:37:25.689Z,0.01
2019-04-23T12:38:23.846Z,0.00
2019-04-23T12:40:24.864Z,0.00
2019-04-23T12:41:25.719Z,0.00
2019-04-23T12:42:48.454Z,1.97
2019-04-23T12:43:25.576Z,7.14
2019-04-23T12:44:30.612Z,3.54
2019-04-23T12:45:31.765Z,4.64
2019-04-23T12:46:33.093Z,6.29
2019-04-23T12:48:31.164Z,6.11
2019-04-23T12:49:45.858Z,7.06
2019-04-23T12:52:34.347Z,7.39
2019-04-23T12:53:25.866Z,10.35
2019-04-23T12:54:41.490Z,4.87
2019-04-23T12:57:17.998Z,5.23
2019-04-23T12:58:26.906Z,4.19
2019-04-23T12:59:27.222Z,7.20
2019-04-23T13:01:35.853Z,4.47
2019-04-23T13:03:29.820Z,5.06
2019-04-23T13:04:35.711Z,7.30
2019-04-23T13:05:27.045Z,8.90
2019-04-23T13:07:36.981Z,4.86
2019-04-23T13:09:41.826Z,6.14
2019-04-23T13:10:30.257Z,8.25
2019-04-23T13:11:32.561Z,6.48
2019-04-23T13:12:37.781Z,5.07
2019-04-23T13:13:27.986Z,4.68
2019-04-23T13:14:36.359Z,5.11
2019-04-23T13:15:30.888Z,4.74
2019-04-23T13:16:39.903Z,4.54
2019-04-23T13:19:39.854Z,5.45
2019-04-23T13:22:31.868Z,7.40
2019-04-23T13:26:24.805Z,4.69
2019-04-23T13:27:38.396Z,3.13
2019-04-23T13:28:27.991Z,6.03
2019-04-23T13:32:27.816Z,5.75
2019-04-23T13:33:34.788Z,6.95
2019-04-23T13:34:38.540Z,5.70
2019-04-23T13:37:36.958Z,3.16
2019-04-23T13:39:20.415Z,4.22
2019-04-23T13:40:29.250Z,10.57
2019-04-23T13:41:17.407Z,5.78
2019-04-23T13:42:42.068Z,4.53
2019-04-23T13:44:17.571Z,6.45
2019-04-23T13:46:21.774Z,5.32
2019-04-23T13:47:42.977Z,4.23
2019-04-23T13:49:27.780Z,4.63
2019-04-23T13:50:37.243Z,3.05
2019-04-23T13:51:27.374Z,4.64
2019-04-23T13:52:43.280Z,6.90
2019-04-23T13:53:42.630Z,4.43
2019-04-23T13:54:50.214Z,4.93
2019-04-23T13:55:22.890Z,6.74
2019-04-23T13:56:47.911Z,5.64
2019-04-23T13:57:59.306Z,5.00
2019-04-23T13:58:21.583Z,6.11
2019-04-23T14:00:25.063Z,3.73
2019-04-23T14:01:30.762Z,4.25
2019-04-23T14:02:40.348Z,5.39
2019-04-23T14:04:24.876Z,4.75
2019-04-23T14:05:28.123Z,5.46
2019-04-23T14:06:25.659Z,3.67
2019-04-23T14:07:30.377Z,6.19
2019-04-23T14:10:20.119Z,5.88
2019-04-23T14:11:26.018Z,4.92
2019-04-23T14:12:32.213Z,5.00
2019-04-23T14:14:28.287Z,4.48
2019-04-23T14:38:22.110Z,0.00
2019-04-23T14:42:24.424Z,0.00
2019-04-23T14:43:23.871Z,0.00
2019-04-23T14:44:11.391Z,0.00
2019-04-23T14:46:33.725Z,0.00
2019-04-23T14:47:23.875Z,0.00
2019-04-23T14:48:17.007Z,0.00
2019-04-23T14:49:13.209Z,0.00
2019-04-23T14:52:21.656Z,0.00
2019-04-23T14:54:24.950Z,0.00
2019-04-23T14:56:20.194Z,0.00
2019-04-23T14:58:25.461Z,0.00
2019-04-23T15:01:35.373Z,0.01
2019-04-23T15:02:13.899Z,0.00
2019-04-23T15:03:27.178Z,0.00
2019-04-23T15:04:19.230Z,0.00
2019-04-23T15:06:27.735Z,0.00
2019-04-23T15:07:23.003Z,0.00
2019-04-23T15:08:15.615Z,0.00
2019-04-23T15:09:13.973Z,0.00
2019-04-23T15:14:47.331Z,0.00
2019-04-23T15:15:31.878Z,0.00
2019-04-23T15:16:39.884Z,0.00
2019-04-23T15:19:10.999Z,0.00
2019-04-23T15:22:07.840Z,0.00
2019-04-23T15:24:23.180Z,0.00
2019-04-23T15:26:47.736Z,0.00
2019-04-23T15:28:07.315Z,0.01
2019-04-23T15:29:02.778Z,0.00
2019-04-23T15:30:10.614Z,0.00
2019-04-23T15:31:23.487Z,0.00
2019-04-23T15:34:04.269Z,0.00
2019-04-23T15:36:02.267Z,0.00
2019-04-23T15:39:55.140Z,0.00
2019-04-23T15:50:29.760Z,0.00
2019-04-23T16:10:22.271Z,0.00
2019-04-23T16:20:39.232Z,0.00
2019-04-23T16:30:14.294Z,0.00
2019-04-23T16:40:33.166Z,0.00
